sensor_id;sensor_type;location;lat;lon;timestamp;P1;durP1;ratioP1;P2;durP2;ratioP2
69459;SDS011;57182;55.712;37.612;2022-08-18T00:01:44;16.63;;;7.57;;
69459;SDS011;57182;55.712;37.612;2022-08-18T00:04:31;17.35;;;7.90;;
69459;SDS011;57182;55.712;37.612;2022-08-18T00:07:31;18.02;;;7.75;;
69459;SDS011;57182;55.712;37.612;2022-08-18T00:09:59;14.20;;;7.30;;
69459;SDS011;57182;55.712;37.612;2022-08-18T00:12:36;14.88;;;8.15;;
69459;SDS011;57182;55.712;37.612;2022-08-18T00:15:10;17.05;;;7.72;;
69459;SDS011;57182;55.712;37.612;2022-08-18T00:17:40;16.35;;;7.45;;
69459;SDS011;57182;55.712;37.612;2022-08-18T00:20:10;18.75;;;7.72;;
69459;SDS011;57182;55.712;37.612;2022-08-18T00:22:42;16.80;;;8.68;;
69459;SDS011;57182;55.712;37.612;2022-08-18T00:25:12;17.58;;;7.22;;
69459;SDS011;57182;55.712;37.612;2022-08-18T00:27:44;19.42;;;8.60;;
69459;SDS011;57182;55.712;37.612;2022-08-18T00:30:13;18.00;;;9.02;;
69459;SDS011;57182;55.712;37.612;2022-08-18T00:32:48;24.58;;;9.18;;
69459;SDS011;57182;55.712;37.612;2022-08-18T00:35:22;23.00;;;8.07;;
69459;SDS011;57182;55.712;37.612;2022-08-18T00:37:58;15.13;;;7.97;;
69459;SDS011;57182;55.712;37.612;2022-08-18T00:40:30;19.05;;;8.45;;
69459;SDS011;57182;55.712;37.612;2022-08-18T00:43:14;17.38;;;8.40;;
69459;SDS011;57182;55.712;37.612;2022-08-18T00:45:46;15.90;;;8.55;;
69459;SDS011;57182;55.712;37.612;2022-08-18T00:48:14;25.10;;;8.68;;
69459;SDS011;57182;55.712;37.612;2022-08-18T00:53:35;17.05;;;8.80;;
69459;SDS011;57182;55.712;37.612;2022-08-18T00:56:21;16.27;;;9.43;;
69459;SDS011;57182;55.712;37.612;2022-08-18T00:59:13;22.25;;;8.63;;
69459;SDS011;57182;55.712;37.612;2022-08-18T01:01:47;16.15;;;9.07;;
69459;SDS011;57182;55.712;37.612;2022-08-18T01:04:36;28.02;;;9.35;;
69459;SDS011;57182;55.712;37.612;2022-08-18T01:10:11;21.15;;;10.00;;
69459;SDS011;57182;55.712;37.612;2022-08-18T01:12:44;18.50;;;9.70;;
69459;SDS011;57182;55.712;37.612;2022-08-18T01:15:15;23.75;;;10.13;;
69459;SDS011;57182;55.712;37.612;2022-08-18T01:17:56;19.42;;;9.80;;
69459;SDS011;57182;55.712;37.612;2022-08-18T01:20:51;22.85;;;10.55;;
69459;SDS011;57182;55.712;37.612;2022-08-18T01:32:25;20.75;;;9.88;;
69459;SDS011;57182;55.712;37.612;2022-08-18T01:34:53;20.00;;;10.40;;
69459;SDS011;57182;55.712;37.612;2022-08-18T01:37:23;22.13;;;10.25;;
69459;SDS011;57182;55.712;37.612;2022-08-18T01:39:57;19.23;;;10.73;;
69459;SDS011;57182;55.712;37.612;2022-08-18T01:42:47;21.33;;;9.95;;
69459;SDS011;57182;55.712;37.612;2022-08-18T01:45:16;18.35;;;9.98;;
69459;SDS011;57182;55.712;37.612;2022-08-18T01:47:49;16.55;;;9.88;;
69459;SDS011;57182;55.712;37.612;2022-08-18T01:50:17;20.05;;;9.65;;
69459;SDS011;57182;55.712;37.612;2022-08-18T01:52:47;18.40;;;10.50;;
69459;SDS011;57182;55.712;37.612;2022-08-18T02:00:05;20.30;;;9.82;;
69459;SDS011;57182;55.712;37.612;2022-08-18T02:06:05;14.23;;;9.50;;
69459;SDS011;57182;55.712;37.612;2022-08-18T02:08:40;19.50;;;9.70;;
69459;SDS011;57182;55.712;37.612;2022-08-18T02:13:50;22.23;;;9.20;;
69459;SDS011;57182;55.712;37.612;2022-08-18T02:16:22;14.63;;;9.23;;
69459;SDS011;57182;55.712;37.612;2022-08-18T02:18:58;17.17;;;9.10;;
69459;SDS011;57182;55.712;37.612;2022-08-18T02:21:36;17.17;;;8.90;;
69459;SDS011;57182;55.712;37.612;2022-08-18T02:24:16;17.25;;;8.48;;
69459;SDS011;57182;55.712;37.612;2022-08-18T02:26:49;14.75;;;9.23;;
69459;SDS011;57182;55.712;37.612;2022-08-18T02:29:22;17.27;;;8.88;;
69459;SDS011;57182;55.712;37.612;2022-08-18T02:32:01;17.75;;;8.95;;
69459;SDS011;57182;55.712;37.612;2022-08-18T02:34:36;19.13;;;9.38;;
69459;SDS011;57182;55.712;37.612;2022-08-18T02:37:12;19.92;;;9.38;;
69459;SDS011;57182;55.712;37.612;2022-08-18T02:40:33;18.60;;;9.52;;
69459;SDS011;57182;55.712;37.612;2022-08-18T02:43:10;16.60;;;9.15;;
69459;SDS011;57182;55.712;37.612;2022-08-18T02:45:43;18.55;;;11.30;;
69459;SDS011;57182;55.712;37.612;2022-08-18T02:48:58;19.75;;;10.48;;
69459;SDS011;57182;55.712;37.612;2022-08-18T02:59:40;20.50;;;12.70;;
69459;SDS011;57182;55.712;37.612;2022-08-18T03:02:50;31.92;;;15.85;;
69459;SDS011;57182;55.712;37.612;2022-08-18T03:06:01;32.03;;;16.00;;
69459;SDS011;57182;55.712;37.612;2022-08-18T03:08:44;31.52;;;16.67;;
69459;SDS011;57182;55.712;37.612;2022-08-18T03:11:46;33.78;;;17.73;;
69459;SDS011;57182;55.712;37.612;2022-08-18T03:14:54;36.83;;;18.67;;
69459;SDS011;57182;55.712;37.612;2022-08-18T03:17:37;34.45;;;20.48;;
69459;SDS011;57182;55.712;37.612;2022-08-18T03:21:10;37.70;;;21.27;;
69459;SDS011;57182;55.712;37.612;2022-08-18T03:24:41;48.63;;;22.90;;
69459;SDS011;57182;55.712;37.612;2022-08-18T03:28:09;40.42;;;23.80;;
69459;SDS011;57182;55.712;37.612;2022-08-18T03:30:55;50.75;;;26.42;;
69459;SDS011;57182;55.712;37.612;2022-08-18T03:34:43;43.20;;;24.52;;
69459;SDS011;57182;55.712;37.612;2022-08-18T05:26:44;166.25;;;111.25;;
69459;SDS011;57182;55.712;37.612;2022-08-18T05:30:31;157.30;;;106.97;;
69459;SDS011;57182;55.712;37.612;2022-08-18T05:34:19;158.25;;;105.65;;
69459;SDS011;57182;55.712;37.612;2022-08-18T05:50:49;149.75;;;100.63;;
69459;SDS011;57182;55.712;37.612;2022-08-18T06:02:54;140.32;;;99.00;;
69459;SDS011;57182;55.712;37.612;2022-08-18T06:06:44;131.07;;;94.97;;
69459;SDS011;57182;55.712;37.612;2022-08-18T06:42:34;71.97;;;41.42;;
69459;SDS011;57182;55.712;37.612;2022-08-18T06:46:23;57.20;;;29.67;;
69459;SDS011;57182;55.712;37.612;2022-08-18T06:49:53;45.60;;;25.65;;
69459;SDS011;57182;55.712;37.612;2022-08-18T06:58:25;41.83;;;22.60;;
69459;SDS011;57182;55.712;37.612;2022-08-18T07:06:06;49.45;;;22.10;;
69459;SDS011;57182;55.712;37.612;2022-08-18T07:10:45;41.22;;;20.92;;
69459;SDS011;57182;55.712;37.612;2022-08-18T07:31:25;29.67;;;16.67;;
69459;SDS011;57182;55.712;37.612;2022-08-18T07:35:35;26.48;;;13.45;;
69459;SDS011;57182;55.712;37.612;2022-08-18T07:39:33;29.30;;;13.35;;
69459;SDS011;57182;55.712;37.612;2022-08-18T08:12:24;40.97;;;8.95;;
69459;SDS011;57182;55.712;37.612;2022-08-18T08:24:52;13.00;;;6.50;;
69459;SDS011;57182;55.712;37.612;2022-08-18T08:32:22;12.70;;;5.90;;
69459;SDS011;57182;55.712;37.612;2022-08-18T08:36:13;8.10;;;5.65;;
69459;SDS011;57182;55.712;37.612;2022-08-18T08:54:25;13.90;;;3.22;;
69459;SDS011;57182;55.712;37.612;2022-08-18T08:57:25;12.68;;;3.95;;
69459;SDS011;57182;55.712;37.612;2022-08-18T09:00:48;11.13;;;3.53;;
69459;SDS011;57182;55.712;37.612;2022-08-18T09:23:42;8.23;;;2.90;;
69459;SDS011;57182;55.712;37.612;2022-08-18T09:31:24;11.07;;;2.90;;
69459;SDS011;57182;55.712;37.612;2022-08-18T09:40:55;11.07;;;3.20;;
69459;SDS011;57182;55.712;37.612;2022-08-18T09:44:06;9.18;;;3.70;;
69459;SDS011;57182;55.712;37.612;2022-08-18T09:46:58;11.10;;;3.10;;
69459;SDS011;57182;55.712;37.612;2022-08-18T09:49:39;9.98;;;3.30;;
69459;SDS011;57182;55.712;37.612;2022-08-18T10:16:20;9.25;;;3.75;;
69459;SDS011;57182;55.712;37.612;2022-08-18T10:19:27;22.77;;;3.38;;
69459;SDS011;57182;55.712;37.612;2022-08-18T10:22:38;12.65;;;3.15;;
69459;SDS011;57182;55.712;37.612;2022-08-18T10:25:11;7.90;;;3.45;;
69459;SDS011;57182;55.712;37.612;2022-08-18T10:27:53;9.70;;;3.50;;
69459;SDS011;57182;55.712;37.612;2022-08-18T10:45:23;8.45;;;3.10;;
69459;SDS011;57182;55.712;37.612;2022-08-18T10:48:18;27.23;;;3.97;;
69459;SDS011;57182;55.712;37.612;2022-08-18T10:51:15;17.70;;;4.32;;
69459;SDS011;57182;55.712;37.612;2022-08-18T10:53:50;8.93;;;4.43;;
69459;SDS011;57182;55.712;37.612;2022-08-18T11:05:19;4.13;;;2.33;;
69459;SDS011;57182;55.712;37.612;2022-08-18T11:07:58;7.45;;;2.95;;
69459;SDS011;57182;55.712;37.612;2022-08-18T11:10:48;4.82;;;2.97;;
69459;SDS011;57182;55.712;37.612;2022-08-18T11:14:17;5.25;;;2.72;;
69459;SDS011;57182;55.712;37.612;2022-08-18T11:20:11;12.25;;;2.83;;
69459;SDS011;57182;55.712;37.612;2022-08-18T11:22:54;5.13;;;2.30;;
69459;SDS011;57182;55.712;37.612;2022-08-18T11:25:32;7.43;;;2.78;;
69459;SDS011;57182;55.712;37.612;2022-08-18T11:28:17;12.05;;;3.75;;
69459;SDS011;57182;55.712;37.612;2022-08-18T11:31:12;12.10;;;2.50;;
69459;SDS011;57182;55.712;37.612;2022-08-18T11:33:53;7.18;;;2.40;;
69459;SDS011;57182;55.712;37.612;2022-08-18T11:36:30;6.78;;;2.58;;
69459;SDS011;57182;55.712;37.612;2022-08-18T11:39:00;7.97;;;2.05;;
69459;SDS011;57182;55.712;37.612;2022-08-18T11:41:39;10.88;;;2.53;;
69459;SDS011;57182;55.712;37.612;2022-08-18T11:44:18;4.43;;;2.30;;
69459;SDS011;57182;55.712;37.612;2022-08-18T11:47:07;12.98;;;2.63;;
69459;SDS011;57182;55.712;37.612;2022-08-18T11:50:09;15.60;;;2.53;;
69459;SDS011;57182;55.712;37.612;2022-08-18T11:53:10;8.45;;;2.78;;
69459;SDS011;57182;55.712;37.612;2022-08-18T11:57:27;7.03;;;2.30;;
69459;SDS011;57182;55.712;37.612;2022-08-18T12:16:58;10.05;;;2.25;;
69459;SDS011;57182;55.712;37.612;2022-08-18T12:20:53;7.78;;;2.63;;
69459;SDS011;57182;55.712;37.612;2022-08-18T12:27:53;6.35;;;3.00;;
69459;SDS011;57182;55.712;37.612;2022-08-18T12:31:45;2.80;;;1.95;;
69459;SDS011;57182;55.712;37.612;2022-08-18T12:35:36;4.70;;;2.05;;
69459;SDS011;57182;55.712;37.612;2022-08-18T12:38:50;6.70;;;1.90;;
69459;SDS011;57182;55.712;37.612;2022-08-18T12:41:56;4.40;;;1.98;;
69459;SDS011;57182;55.712;37.612;2022-08-18T12:46:00;5.20;;;2.10;;
69459;SDS011;57182;55.712;37.612;2022-08-18T12:49:27;8.05;;;2.10;;
69459;SDS011;57182;55.712;37.612;2022-08-18T12:52:34;4.60;;;2.60;;
69459;SDS011;57182;55.712;37.612;2022-08-18T13:03:25;9.27;;;2.20;;
69459;SDS011;57182;55.712;37.612;2022-08-18T13:06:47;5.50;;;2.10;;
69459;SDS011;57182;55.712;37.612;2022-08-18T13:11:22;9.38;;;2.28;;
69459;SDS011;57182;55.712;37.612;2022-08-18T13:14:37;5.72;;;2.30;;
69459;SDS011;57182;55.712;37.612;2022-08-18T13:18:06;6.30;;;2.30;;
69459;SDS011;57182;55.712;37.612;2022-08-18T13:21:03;9.25;;;4.25;;
69459;SDS011;57182;55.712;37.612;2022-08-18T13:23:55;9.50;;;2.78;;
69459;SDS011;57182;55.712;37.612;2022-08-18T13:27:12;7.82;;;2.63;;
69459;SDS011;57182;55.712;37.612;2022-08-18T13:30:23;7.85;;;2.30;;
69459;SDS011;57182;55.712;37.612;2022-08-18T13:33:46;5.63;;;2.33;;
69459;SDS011;57182;55.712;37.612;2022-08-18T13:37:18;9.57;;;2.67;;
69459;SDS011;57182;55.712;37.612;2022-08-18T13:44:26;10.07;;;2.63;;
69459;SDS011;57182;55.712;37.612;2022-08-18T13:48:07;6.13;;;2.70;;
69459;SDS011;57182;55.712;37.612;2022-08-18T13:51:58;7.85;;;2.67;;
69459;SDS011;57182;55.712;37.612;2022-08-18T13:59:22;15.45;;;2.78;;
69459;SDS011;57182;55.712;37.612;2022-08-18T14:02:53;11.43;;;2.30;;
69459;SDS011;57182;55.712;37.612;2022-08-18T14:06:16;3.47;;;2.22;;
69459;SDS011;57182;55.712;37.612;2022-08-18T14:10:13;6.53;;;2.60;;
69459;SDS011;57182;55.712;37.612;2022-08-18T14:13:46;11.13;;;2.55;;
69459;SDS011;57182;55.712;37.612;2022-08-18T14:17:37;6.25;;;2.67;;
69459;SDS011;57182;55.712;37.612;2022-08-18T14:20:50;7.32;;;2.63;;
69459;SDS011;57182;55.712;37.612;2022-08-18T14:28:17;16.88;;;3.40;;
69459;SDS011;57182;55.712;37.612;2022-08-18T14:31:38;20.90;;;3.90;;
69459;SDS011;57182;55.712;37.612;2022-08-18T14:34:55;11.65;;;3.33;;
69459;SDS011;57182;55.712;37.612;2022-08-18T14:38:34;10.55;;;3.10;;
69459;SDS011;57182;55.712;37.612;2022-08-18T14:57:50;9.82;;;3.08;;
69459;SDS011;57182;55.712;37.612;2022-08-18T15:01:26;6.47;;;2.92;;
69459;SDS011;57182;55.712;37.612;2022-08-18T15:08:29;11.15;;;4.10;;
69459;SDS011;57182;55.712;37.612;2022-08-18T15:11:47;9.13;;;3.33;;
69459;SDS011;57182;55.712;37.612;2022-08-18T15:15:35;7.50;;;3.53;;
69459;SDS011;57182;55.712;37.612;2022-08-18T15:19:32;8.68;;;3.83;;
69459;SDS011;57182;55.712;37.612;2022-08-18T15:27:25;8.20;;;3.00;;
69459;SDS011;57182;55.712;37.612;2022-08-18T15:30:57;6.35;;;3.28;;
69459;SDS011;57182;55.712;37.612;2022-08-18T15:35:09;9.70;;;3.40;;
69459;SDS011;57182;55.712;37.612;2022-08-18T15:39:19;6.07;;;2.95;;
69459;SDS011;57182;55.712;37.612;2022-08-18T16:07:32;6.18;;;3.35;;
69459;SDS011;57182;55.712;37.612;2022-08-18T16:15:10;12.48;;;3.70;;
69459;SDS011;57182;55.712;37.612;2022-08-18T16:19:09;11.50;;;3.30;;
69459;SDS011;57182;55.712;37.612;2022-08-18T16:23:15;10.32;;;3.13;;
69459;SDS011;57182;55.712;37.612;2022-08-18T16:27:02;9.98;;;3.30;;
69459;SDS011;57182;55.712;37.612;2022-08-18T16:30:27;7.53;;;3.25;;
69459;SDS011;57182;55.712;37.612;2022-08-18T16:34:19;9.82;;;3.38;;
69459;SDS011;57182;55.712;37.612;2022-08-18T16:50:17;8.60;;;3.25;;
69459;SDS011;57182;55.712;37.612;2022-08-18T16:57:58;15.00;;;3.83;;
69459;SDS011;57182;55.712;37.612;2022-08-18T17:01:26;16.10;;;5.18;;
69459;SDS011;57182;55.712;37.612;2022-08-18T17:05:12;17.73;;;4.45;;
69459;SDS011;57182;55.712;37.612;2022-08-18T17:09:04;6.80;;;3.72;;
69459;SDS011;57182;55.712;37.612;2022-08-18T17:17:31;11.20;;;4.28;;
69459;SDS011;57182;55.712;37.612;2022-08-18T17:20:15;12.02;;;4.03;;
69459;SDS011;57182;55.712;37.612;2022-08-18T17:23:56;7.75;;;3.65;;
69459;SDS011;57182;55.712;37.612;2022-08-18T17:31:00;11.45;;;5.05;;
69459;SDS011;57182;55.712;37.612;2022-08-18T17:34:20;15.02;;;4.03;;
69459;SDS011;57182;55.712;37.612;2022-08-18T17:37:40;8.43;;;4.03;;
69459;SDS011;57182;55.712;37.612;2022-08-18T17:41:09;9.10;;;3.60;;
69459;SDS011;57182;55.712;37.612;2022-08-18T17:44:53;9.45;;;3.65;;
69459;SDS011;57182;55.712;37.612;2022-08-18T17:51:55;10.15;;;3.00;;
69459;SDS011;57182;55.712;37.612;2022-08-18T18:02:44;9.68;;;3.25;;
69459;SDS011;57182;55.712;37.612;2022-08-18T18:05:18;9.52;;;3.13;;
69459;SDS011;57182;55.712;37.612;2022-08-18T18:08:09;9.10;;;3.80;;
69459;SDS011;57182;55.712;37.612;2022-08-18T18:10:41;10.85;;;3.80;;
69459;SDS011;57182;55.712;37.612;2022-08-18T18:13:43;12.18;;;3.58;;
69459;SDS011;57182;55.712;37.612;2022-08-18T18:20:30;8.05;;;3.75;;
69459;SDS011;57182;55.712;37.612;2022-08-18T18:23:15;4.95;;;3.50;;
69459;SDS011;57182;55.712;37.612;2022-08-18T18:25:51;8.75;;;3.45;;
69459;SDS011;57182;55.712;37.612;2022-08-18T18:28:25;22.23;;;3.20;;
69459;SDS011;57182;55.712;37.612;2022-08-18T18:30:58;8.23;;;3.70;;
69459;SDS011;57182;55.712;37.612;2022-08-18T18:33:54;15.05;;;3.75;;
69459;SDS011;57182;55.712;37.612;2022-08-18T18:36:32;11.27;;;3.72;;
69459;SDS011;57182;55.712;37.612;2022-08-18T18:39:14;10.75;;;3.90;;
69459;SDS011;57182;55.712;37.612;2022-08-18T18:42:10;7.55;;;3.40;;
69459;SDS011;57182;55.712;37.612;2022-08-18T18:49:14;7.80;;;3.25;;
69459;SDS011;57182;55.712;37.612;2022-08-18T18:55:35;10.35;;;3.38;;
69459;SDS011;57182;55.712;37.612;2022-08-18T20:11:41;10.82;;;4.20;;
69459;SDS011;57182;55.712;37.612;2022-08-18T20:20:26;8.98;;;4.60;;
69459;SDS011;57182;55.712;37.612;2022-08-18T21:23:06;8.10;;;3.70;;
69459;SDS011;57182;55.712;37.612;2022-08-18T21:26:52;12.68;;;4.15;;
69459;SDS011;57182;55.712;37.612;2022-08-18T22:29:34;9.70;;;4.16;;
69459;SDS011;57182;55.712;37.612;2022-08-18T22:38:16;9.63;;;4.00;;
69459;SDS011;57182;55.712;37.612;2022-08-18T22:47:11;9.80;;;3.50;;
69459;SDS011;57182;55.712;37.612;2022-08-18T22:50:50;9.98;;;3.20;;
69459;SDS011;57182;55.712;37.612;2022-08-18T22:58:55;11.15;;;3.60;;
69459;SDS011;57182;55.712;37.612;2022-08-18T23:02:45;10.27;;;3.10;;
